sensor_id;sensor_type;location;lat;lon;timestamp;P1;durP1;ratioP1;P2;durP2;ratioP2
73571;SDS011;61854;48.510;-2.770;2023-12-20T00:00:34;16.00;;;1.83;;
73571;SDS011;61854;48.510;-2.770;2023-12-20T00:03:02;14.73;;;2.03;;
73571;SDS011;61854;48.510;-2.770;2023-12-20T00:05:28;10.07;;;1.65;;
73571;SDS011;61854;48.510;-2.770;2023-12-20T00:07:53;16.23;;;2.10;;
73571;SDS011;61854;48.510;-2.770;2023-12-20T00:10:19;13.10;;;2.92;;
73571;SDS011;61854;48.510;-2.770;2023-12-20T00:12:45;11.93;;;2.00;;
73571;SDS011;61854;48.510;-2.770;2023-12-20T00:15:10;11.75;;;1.80;;
73571;SDS011;61854;48.510;-2.770;2023-12-20T00:17:36;6.22;;;1.77;;
73571;SDS011;61854;48.510;-2.770;2023-12-20T00:20:02;16.42;;;2.22;;
73571;SDS011;61854;48.510;-2.770;2023-12-20T00:22:28;11.07;;;2.03;;
73571;SDS011;61854;48.510;-2.770;2023-12-20T00:24:53;10.85;;;1.80;;
73571;SDS011;61854;48.510;-2.770;2023-12-20T00:27:19;10.15;;;1.85;;
73571;SDS011;61854;48.510;-2.770;2023-12-20T00:29:44;9.15;;;1.80;;
73571;SDS011;61854;48.510;-2.770;2023-12-20T00:32:13;14.00;;;1.85;;
73571;SDS011;61854;48.510;-2.770;2023-12-20T00:34:38;9.93;;;1.88;;
73571;SDS011;61854;48.510;-2.770;2023-12-20T00:37:04;9.65;;;1.88;;
73571;SDS011;61854;48.510;-2.770;2023-12-20T00:39:30;6.53;;;2.15;;
73571;SDS011;61854;48.510;-2.770;2023-12-20T00:41:56;9.05;;;1.52;;
73571;SDS011;61854;48.510;-2.770;2023-12-20T00:44:21;10.20;;;1.70;;
73571;SDS011;61854;48.510;-2.770;2023-12-20T00:46:47;8.02;;;1.67;;
73571;SDS011;61854;48.510;-2.770;2023-12-20T00:49:12;9.98;;;1.95;;
73571;SDS011;61854;48.510;-2.770;2023-12-20T00:51:38;10.05;;;1.70;;
73571;SDS011;61854;48.510;-2.770;2023-12-20T00:54:04;8.35;;;1.70;;
73571;SDS011;61854;48.510;-2.770;2023-12-20T00:56:29;12.60;;;1.80;;
73571;SDS011;61854;48.510;-2.770;2023-12-20T00:58:55;10.68;;;1.55;;
73571;SDS011;61854;48.510;-2.770;2023-12-20T01:01:21;5.97;;;1.40;;
73571;SDS011;61854;48.510;-2.770;2023-12-20T01:03:47;9.55;;;1.52;;
73571;SDS011;61854;48.510;-2.770;2023-12-20T01:06:13;10.75;;;1.50;;
73571;SDS011;61854;48.510;-2.770;2023-12-20T01:08:39;10.73;;;1.40;;
73571;SDS011;61854;48.510;-2.770;2023-12-20T01:11:04;9.70;;;1.27;;
73571;SDS011;61854;48.510;-2.770;2023-12-20T01:13:31;18.45;;;1.80;;
73571;SDS011;61854;48.510;-2.770;2023-12-20T01:15:56;8.38;;;1.33;;
73571;SDS011;61854;48.510;-2.770;2023-12-20T01:18:22;11.50;;;1.70;;
73571;SDS011;61854;48.510;-2.770;2023-12-20T01:20:47;10.85;;;1.50;;
73571;SDS011;61854;48.510;-2.770;2023-12-20T01:23:13;5.20;;;1.08;;
73571;SDS011;61854;48.510;-2.770;2023-12-20T01:25:39;10.38;;;1.35;;
73571;SDS011;61854;48.510;-2.770;2023-12-20T01:28:04;11.60;;;1.17;;
73571;SDS011;61854;48.510;-2.770;2023-12-20T01:30:30;6.65;;;1.25;;
73571;SDS011;61854;48.510;-2.770;2023-12-20T01:32:56;11.60;;;1.92;;
73571;SDS011;61854;48.510;-2.770;2023-12-20T01:35:21;10.15;;;1.60;;
73571;SDS011;61854;48.510;-2.770;2023-12-20T01:37:47;9.15;;;1.83;;
73571;SDS011;61854;48.510;-2.770;2023-12-20T01:40:12;8.05;;;1.17;;
73571;SDS011;61854;48.510;-2.770;2023-12-20T01:42:38;10.05;;;1.27;;
73571;SDS011;61854;48.510;-2.770;2023-12-20T01:45:04;9.93;;;1.30;;
73571;SDS011;61854;48.510;-2.770;2023-12-20T01:47:30;7.03;;;1.10;;
73571;SDS011;61854;48.510;-2.770;2023-12-20T01:49:55;10.02;;;1.40;;
73571;SDS011;61854;48.510;-2.770;2023-12-20T01:52:22;13.68;;;1.98;;
73571;SDS011;61854;48.510;-2.770;2023-12-20T01:54:48;5.93;;;1.38;;
73571;SDS011;61854;48.510;-2.770;2023-12-20T01:57:14;8.43;;;1.20;;
73571;SDS011;61854;48.510;-2.770;2023-12-20T01:59:40;7.47;;;1.50;;
73571;SDS011;61854;48.510;-2.770;2023-12-20T02:02:06;9.73;;;1.40;;
73571;SDS011;61854;48.510;-2.770;2023-12-20T02:04:33;8.82;;;1.42;;
73571;SDS011;61854;48.510;-2.770;2023-12-20T02:06:58;8.30;;;1.17;;
73571;SDS011;61854;48.510;-2.770;2023-12-20T02:09:24;8.23;;;1.85;;
73571;SDS011;61854;48.510;-2.770;2023-12-20T02:11:50;5.72;;;1.02;;
73571;SDS011;61854;48.510;-2.770;2023-12-20T02:14:16;6.10;;;1.10;;
73571;SDS011;61854;48.510;-2.770;2023-12-20T02:16:42;5.70;;;0.95;;
73571;SDS011;61854;48.510;-2.770;2023-12-20T02:19:09;4.10;;;0.90;;
73571;SDS011;61854;48.510;-2.770;2023-12-20T02:21:42;11.27;;;1.15;;
73571;SDS011;61854;48.510;-2.770;2023-12-20T02:24:07;8.57;;;1.63;;
73571;SDS011;61854;48.510;-2.770;2023-12-20T02:26:33;4.88;;;1.00;;
73571;SDS011;61854;48.510;-2.770;2023-12-20T02:28:59;10.68;;;1.58;;
73571;SDS011;61854;48.510;-2.770;2023-12-20T02:31:25;7.72;;;0.93;;
73571;SDS011;61854;48.510;-2.770;2023-12-20T02:33:51;8.52;;;1.10;;
73571;SDS011;61854;48.510;-2.770;2023-12-20T02:36:16;7.18;;;1.00;;
73571;SDS011;61854;48.510;-2.770;2023-12-20T02:38:42;9.55;;;1.27;;
73571;SDS011;61854;48.510;-2.770;2023-12-20T02:41:07;6.45;;;0.82;;
73571;SDS011;61854;48.510;-2.770;2023-12-20T02:43:33;5.40;;;0.90;;
73571;SDS011;61854;48.510;-2.770;2023-12-20T02:45:59;8.48;;;0.88;;
73571;SDS011;61854;48.510;-2.770;2023-12-20T02:48:24;9.73;;;1.00;;
73571;SDS011;61854;48.510;-2.770;2023-12-20T02:50:50;7.10;;;1.00;;
73571;SDS011;61854;48.510;-2.770;2023-12-20T02:53:16;8.20;;;1.35;;
73571;SDS011;61854;48.510;-2.770;2023-12-20T02:55:41;8.52;;;0.95;;
73571;SDS011;61854;48.510;-2.770;2023-12-20T02:58:07;5.72;;;0.95;;
73571;SDS011;61854;48.510;-2.770;2023-12-20T03:00:32;7.13;;;1.30;;
73571;SDS011;61854;48.510;-2.770;2023-12-20T03:02:59;8.85;;;1.10;;
73571;SDS011;61854;48.510;-2.770;2023-12-20T03:05:24;7.15;;;1.10;;
73571;SDS011;61854;48.510;-2.770;2023-12-20T03:07:50;11.35;;;0.88;;
73571;SDS011;61854;48.510;-2.770;2023-12-20T03:10:18;5.93;;;1.00;;
73571;SDS011;61854;48.510;-2.770;2023-12-20T03:12:44;6.40;;;0.90;;
73571;SDS011;61854;48.510;-2.770;2023-12-20T03:15:10;6.85;;;0.73;;
73571;SDS011;61854;48.510;-2.770;2023-12-20T03:17:35;8.77;;;1.10;;
73571;SDS011;61854;48.510;-2.770;2023-12-20T03:20:01;10.07;;;1.10;;
73571;SDS011;61854;48.510;-2.770;2023-12-20T03:22:27;6.78;;;1.20;;
73571;SDS011;61854;48.510;-2.770;2023-12-20T03:24:52;7.65;;;1.10;;
73571;SDS011;61854;48.510;-2.770;2023-12-20T03:27:18;7.82;;;1.33;;
73571;SDS011;61854;48.510;-2.770;2023-12-20T03:29:44;8.95;;;1.10;;
73571;SDS011;61854;48.510;-2.770;2023-12-20T03:32:09;7.45;;;1.27;;
73571;SDS011;61854;48.510;-2.770;2023-12-20T03:34:35;5.32;;;0.90;;
73571;SDS011;61854;48.510;-2.770;2023-12-20T03:37:01;7.75;;;1.27;;
73571;SDS011;61854;48.510;-2.770;2023-12-20T03:39:26;7.65;;;1.40;;
73571;SDS011;61854;48.510;-2.770;2023-12-20T03:41:52;12.05;;;1.20;;
73571;SDS011;61854;48.510;-2.770;2023-12-20T03:44:17;7.93;;;1.00;;
73571;SDS011;61854;48.510;-2.770;2023-12-20T03:46:43;18.42;;;3.53;;
73571;SDS011;61854;48.510;-2.770;2023-12-20T03:49:10;14.75;;;1.17;;
73571;SDS011;61854;48.510;-2.770;2023-12-20T03:51:36;8.55;;;1.17;;
73571;SDS011;61854;48.510;-2.770;2023-12-20T03:54:02;9.43;;;1.10;;
73571;SDS011;61854;48.510;-2.770;2023-12-20T03:56:28;6.85;;;1.75;;
73571;SDS011;61854;48.510;-2.770;2023-12-20T03:58:53;11.77;;;1.45;;
73571;SDS011;61854;48.510;-2.770;2023-12-20T04:01:19;8.27;;;1.20;;
73571;SDS011;61854;48.510;-2.770;2023-12-20T04:03:44;7.90;;;1.08;;
73571;SDS011;61854;48.510;-2.770;2023-12-20T04:06:10;10.68;;;1.33;;
73571;SDS011;61854;48.510;-2.770;2023-12-20T04:08:42;13.00;;;1.98;;
73571;SDS011;61854;48.510;-2.770;2023-12-20T04:11:07;9.32;;;1.50;;
73571;SDS011;61854;48.510;-2.770;2023-12-20T04:13:33;7.63;;;1.40;;
73571;SDS011;61854;48.510;-2.770;2023-12-20T04:15:58;11.13;;;1.35;;
73571;SDS011;61854;48.510;-2.770;2023-12-20T04:18:24;9.15;;;1.48;;
73571;SDS011;61854;48.510;-2.770;2023-12-20T04:20:50;16.15;;;1.60;;
73571;SDS011;61854;48.510;-2.770;2023-12-20T04:23:16;10.52;;;1.15;;
73571;SDS011;61854;48.510;-2.770;2023-12-20T04:25:42;8.88;;;1.10;;
73571;SDS011;61854;48.510;-2.770;2023-12-20T04:28:07;10.63;;;1.38;;
73571;SDS011;61854;48.510;-2.770;2023-12-20T04:30:33;11.88;;;1.52;;
73571;SDS011;61854;48.510;-2.770;2023-12-20T04:32:59;13.23;;;1.55;;
73571;SDS011;61854;48.510;-2.770;2023-12-20T04:35:24;11.00;;;1.92;;
73571;SDS011;61854;48.510;-2.770;2023-12-20T04:37:51;9.18;;;1.35;;
73571;SDS011;61854;48.510;-2.770;2023-12-20T04:40:16;13.73;;;1.70;;
73571;SDS011;61854;48.510;-2.770;2023-12-20T04:42:42;12.95;;;1.45;;
73571;SDS011;61854;48.510;-2.770;2023-12-20T04:45:08;11.45;;;1.42;;
73571;SDS011;61854;48.510;-2.770;2023-12-20T04:47:33;9.40;;;1.27;;
73571;SDS011;61854;48.510;-2.770;2023-12-20T04:49:59;12.23;;;1.73;;
73571;SDS011;61854;48.510;-2.770;2023-12-20T04:52:25;8.90;;;1.25;;
73571;SDS011;61854;48.510;-2.770;2023-12-20T04:54:50;11.05;;;1.55;;
73571;SDS011;61854;48.510;-2.770;2023-12-20T04:57:16;10.88;;;1.40;;
73571;SDS011;61854;48.510;-2.770;2023-12-20T04:59:42;12.50;;;1.98;;
73571;SDS011;61854;48.510;-2.770;2023-12-20T05:02:07;15.40;;;1.98;;
73571;SDS011;61854;48.510;-2.770;2023-12-20T05:04:33;16.38;;;2.15;;
73571;SDS011;61854;48.510;-2.770;2023-12-20T05:06:59;16.00;;;1.75;;
73571;SDS011;61854;48.510;-2.770;2023-12-20T05:09:24;13.57;;;1.60;;
73571;SDS011;61854;48.510;-2.770;2023-12-20T05:11:50;22.67;;;2.22;;
73571;SDS011;61854;48.510;-2.770;2023-12-20T05:14:15;9.75;;;1.80;;
73571;SDS011;61854;48.510;-2.770;2023-12-20T05:16:41;26.05;;;2.58;;
73571;SDS011;61854;48.510;-2.770;2023-12-20T05:19:07;16.85;;;1.77;;
73571;SDS011;61854;48.510;-2.770;2023-12-20T05:21:33;12.32;;;2.00;;
73571;SDS011;61854;48.510;-2.770;2023-12-20T05:23:58;12.88;;;1.60;;
73571;SDS011;61854;48.510;-2.770;2023-12-20T05:26:24;13.45;;;1.83;;
73571;SDS011;61854;48.510;-2.770;2023-12-20T05:28:50;12.55;;;2.00;;
73571;SDS011;61854;48.510;-2.770;2023-12-20T05:31:15;15.90;;;1.88;;
73571;SDS011;61854;48.510;-2.770;2023-12-20T05:33:41;15.52;;;1.55;;
73571;SDS011;61854;48.510;-2.770;2023-12-20T05:36:07;15.90;;;1.40;;
73571;SDS011;61854;48.510;-2.770;2023-12-20T05:38:36;14.77;;;2.22;;
73571;SDS011;61854;48.510;-2.770;2023-12-20T05:41:02;9.20;;;1.52;;
73571;SDS011;61854;48.510;-2.770;2023-12-20T05:43:28;15.30;;;1.80;;
73571;SDS011;61854;48.510;-2.770;2023-12-20T05:45:54;11.80;;;1.73;;
73571;SDS011;61854;48.510;-2.770;2023-12-20T05:48:19;15.68;;;2.33;;
73571;SDS011;61854;48.510;-2.770;2023-12-20T05:50:45;15.13;;;1.88;;
73571;SDS011;61854;48.510;-2.770;2023-12-20T05:53:11;13.13;;;2.00;;
73571;SDS011;61854;48.510;-2.770;2023-12-20T05:55:36;18.17;;;2.60;;
73571;SDS011;61854;48.510;-2.770;2023-12-20T05:58:02;14.60;;;1.83;;
73571;SDS011;61854;48.510;-2.770;2023-12-20T06:00:28;13.02;;;1.75;;
73571;SDS011;61854;48.510;-2.770;2023-12-20T06:02:53;15.27;;;2.15;;
73571;SDS011;61854;48.510;-2.770;2023-12-20T06:05:19;14.85;;;1.92;;
73571;SDS011;61854;48.510;-2.770;2023-12-20T06:07:45;10.40;;;1.98;;
73571;SDS011;61854;48.510;-2.770;2023-12-20T06:10:13;10.82;;;2.15;;
73571;SDS011;61854;48.510;-2.770;2023-12-20T06:12:39;12.98;;;2.35;;
73571;SDS011;61854;48.510;-2.770;2023-12-20T06:15:04;13.50;;;2.20;;
73571;SDS011;61854;48.510;-2.770;2023-12-20T06:17:31;11.10;;;1.73;;
73571;SDS011;61854;48.510;-2.770;2023-12-20T06:19:57;12.88;;;2.05;;
73571;SDS011;61854;48.510;-2.770;2023-12-20T06:22:22;19.25;;;2.40;;
73571;SDS011;61854;48.510;-2.770;2023-12-20T06:24:51;16.50;;;1.85;;
73571;SDS011;61854;48.510;-2.770;2023-12-20T06:27:17;17.85;;;2.10;;
73571;SDS011;61854;48.510;-2.770;2023-12-20T06:29:42;15.43;;;2.20;;
73571;SDS011;61854;48.510;-2.770;2023-12-20T06:32:09;15.15;;;2.35;;
73571;SDS011;61854;48.510;-2.770;2023-12-20T06:34:35;11.10;;;1.60;;
73571;SDS011;61854;48.510;-2.770;2023-12-20T06:37:01;15.90;;;2.20;;
73571;SDS011;61854;48.510;-2.770;2023-12-20T06:39:27;13.25;;;1.92;;
73571;SDS011;61854;48.510;-2.770;2023-12-20T06:41:53;15.10;;;2.10;;
73571;SDS011;61854;48.510;-2.770;2023-12-20T06:44:18;8.57;;;1.67;;
73571;SDS011;61854;48.510;-2.770;2023-12-20T06:46:44;14.23;;;1.92;;
73571;SDS011;61854;48.510;-2.770;2023-12-20T06:49:09;11.07;;;1.58;;
73571;SDS011;61854;48.510;-2.770;2023-12-20T06:51:35;10.77;;;2.08;;
73571;SDS011;61854;48.510;-2.770;2023-12-20T06:54:01;15.02;;;2.00;;
73571;SDS011;61854;48.510;-2.770;2023-12-20T06:56:27;14.80;;;2.08;;
73571;SDS011;61854;48.510;-2.770;2023-12-20T06:58:53;14.25;;;2.53;;
73571;SDS011;61854;48.510;-2.770;2023-12-20T07:01:18;12.25;;;1.88;;
73571;SDS011;61854;48.510;-2.770;2023-12-20T07:03:44;14.35;;;1.80;;
73571;SDS011;61854;48.510;-2.770;2023-12-20T07:06:10;11.43;;;1.85;;
73571;SDS011;61854;48.510;-2.770;2023-12-20T07:08:36;11.32;;;2.03;;
73571;SDS011;61854;48.510;-2.770;2023-12-20T07:11:01;14.48;;;2.13;;
73571;SDS011;61854;48.510;-2.770;2023-12-20T07:13:27;12.93;;;1.85;;
73571;SDS011;61854;48.510;-2.770;2023-12-20T07:15:53;11.65;;;1.48;;
73571;SDS011;61854;48.510;-2.770;2023-12-20T07:18:18;21.83;;;1.90;;
73571;SDS011;61854;48.510;-2.770;2023-12-20T07:20:44;7.72;;;1.60;;
73571;SDS011;61854;48.510;-2.770;2023-12-20T07:23:09;16.15;;;2.10;;
73571;SDS011;61854;48.510;-2.770;2023-12-20T07:25:35;12.85;;;2.08;;
73571;SDS011;61854;48.510;-2.770;2023-12-20T07:28:01;13.70;;;1.90;;
73571;SDS011;61854;48.510;-2.770;2023-12-20T07:30:26;13.45;;;1.92;;
73571;SDS011;61854;48.510;-2.770;2023-12-20T07:32:53;12.18;;;1.80;;
73571;SDS011;61854;48.510;-2.770;2023-12-20T07:35:18;15.52;;;2.10;;
73571;SDS011;61854;48.510;-2.770;2023-12-20T07:37:44;11.30;;;1.63;;
73571;SDS011;61854;48.510;-2.770;2023-12-20T07:40:10;15.23;;;3.00;;
73571;SDS011;61854;48.510;-2.770;2023-12-20T07:42:36;11.18;;;1.83;;
73571;SDS011;61854;48.510;-2.770;2023-12-20T07:45:01;16.50;;;3.10;;
73571;SDS011;61854;48.510;-2.770;2023-12-20T07:47:28;12.30;;;2.97;;
73571;SDS011;61854;48.510;-2.770;2023-12-20T07:49:53;17.73;;;3.58;;
73571;SDS011;61854;48.510;-2.770;2023-12-20T07:52:19;20.85;;;3.75;;
73571;SDS011;61854;48.510;-2.770;2023-12-20T07:54:46;14.20;;;3.33;;
73571;SDS011;61854;48.510;-2.770;2023-12-20T07:57:12;12.95;;;2.85;;
73571;SDS011;61854;48.510;-2.770;2023-12-20T07:59:38;11.95;;;1.85;;
73571;SDS011;61854;48.510;-2.770;2023-12-20T08:02:03;9.48;;;2.30;;
73571;SDS011;61854;48.510;-2.770;2023-12-20T08:04:29;16.02;;;2.50;;
73571;SDS011;61854;48.510;-2.770;2023-12-20T08:06:55;13.68;;;2.65;;
73571;SDS011;61854;48.510;-2.770;2023-12-20T08:09:20;14.68;;;3.00;;
73571;SDS011;61854;48.510;-2.770;2023-12-20T08:11:47;15.93;;;3.05;;
73571;SDS011;61854;48.510;-2.770;2023-12-20T08:14:13;15.32;;;2.67;;
73571;SDS011;61854;48.510;-2.770;2023-12-20T08:16:40;15.80;;;2.33;;
73571;SDS011;61854;48.510;-2.770;2023-12-20T08:19:06;14.07;;;2.53;;
73571;SDS011;61854;48.510;-2.770;2023-12-20T08:21:32;19.50;;;2.55;;
73571;SDS011;61854;48.510;-2.770;2023-12-20T08:23:58;14.95;;;2.13;;
73571;SDS011;61854;48.510;-2.770;2023-12-20T08:26:25;12.70;;;2.33;;
73571;SDS011;61854;48.510;-2.770;2023-12-20T08:28:51;16.20;;;2.35;;
73571;SDS011;61854;48.510;-2.770;2023-12-20T08:31:17;12.07;;;2.13;;
73571;SDS011;61854;48.510;-2.770;2023-12-20T08:33:44;23.50;;;4.22;;
73571;SDS011;61854;48.510;-2.770;2023-12-20T08:36:10;15.13;;;2.80;;
73571;SDS011;61854;48.510;-2.770;2023-12-20T08:38:36;24.00;;;2.80;;
73571;SDS011;61854;48.510;-2.770;2023-12-20T08:41:02;16.35;;;3.05;;
73571;SDS011;61854;48.510;-2.770;2023-12-20T08:43:30;20.67;;;2.97;;
73571;SDS011;61854;48.510;-2.770;2023-12-20T08:45:56;15.57;;;2.80;;
73571;SDS011;61854;48.510;-2.770;2023-12-20T08:48:22;19.25;;;2.33;;
73571;SDS011;61854;48.510;-2.770;2023-12-20T08:50:48;18.67;;;2.55;;
73571;SDS011;61854;48.510;-2.770;2023-12-20T08:53:15;15.20;;;2.42;;
73571;SDS011;61854;48.510;-2.770;2023-12-20T08:55:41;15.07;;;2.58;;
73571;SDS011;61854;48.510;-2.770;2023-12-20T08:58:07;12.65;;;2.13;;
73571;SDS011;61854;48.510;-2.770;2023-12-20T09:00:33;24.90;;;3.22;;
73571;SDS011;61854;48.510;-2.770;2023-12-20T09:02:59;13.30;;;2.35;;
73571;SDS011;61854;48.510;-2.770;2023-12-20T09:05:26;15.05;;;2.67;;
73571;SDS011;61854;48.510;-2.770;2023-12-20T09:07:51;19.15;;;2.47;;
73571;SDS011;61854;48.510;-2.770;2023-12-20T09:10:17;17.05;;;2.53;;
73571;SDS011;61854;48.510;-2.770;2023-12-20T09:12:50;20.10;;;2.70;;
73571;SDS011;61854;48.510;-2.770;2023-12-20T09:15:16;17.60;;;2.28;;
73571;SDS011;61854;48.510;-2.770;2023-12-20T09:17:42;15.63;;;2.58;;
73571;SDS011;61854;48.510;-2.770;2023-12-20T09:20:09;23.38;;;3.00;;
73571;SDS011;61854;48.510;-2.770;2023-12-20T09:22:37;15.27;;;3.10;;
73571;SDS011;61854;48.510;-2.770;2023-12-20T09:25:04;13.68;;;1.80;;
73571;SDS011;61854;48.510;-2.770;2023-12-20T09:27:33;21.98;;;3.22;;
73571;SDS011;61854;48.510;-2.770;2023-12-20T09:29:58;18.00;;;3.70;;
73571;SDS011;61854;48.510;-2.770;2023-12-20T09:32:24;15.90;;;2.30;;
73571;SDS011;61854;48.510;-2.770;2023-12-20T09:34:49;17.17;;;1.92;;
73571;SDS011;61854;48.510;-2.770;2023-12-20T09:37:15;11.55;;;2.25;;
73571;SDS011;61854;48.510;-2.770;2023-12-20T09:39:41;20.27;;;2.70;;
73571;SDS011;61854;48.510;-2.770;2023-12-20T09:42:06;13.38;;;2.00;;
73571;SDS011;61854;48.510;-2.770;2023-12-20T09:44:33;15.90;;;2.90;;
73571;SDS011;61854;48.510;-2.770;2023-12-20T09:47:01;14.68;;;2.45;;
73571;SDS011;61854;48.510;-2.770;2023-12-20T09:49:28;16.63;;;2.15;;
73571;SDS011;61854;48.510;-2.770;2023-12-20T09:51:55;15.18;;;2.25;;
73571;SDS011;61854;48.510;-2.770;2023-12-20T09:54:25;17.67;;;2.53;;
73571;SDS011;61854;48.510;-2.770;2023-12-20T09:56:51;14.27;;;2.30;;
73571;SDS011;61854;48.510;-2.770;2023-12-20T09:59:17;18.83;;;2.63;;
73571;SDS011;61854;48.510;-2.770;2023-12-20T10:01:43;15.35;;;2.50;;
73571;SDS011;61854;48.510;-2.770;2023-12-20T10:04:09;14.00;;;2.65;;
73571;SDS011;61854;48.510;-2.770;2023-12-20T10:09:04;19.00;;;2.30;;
73571;SDS011;61854;48.510;-2.770;2023-12-20T10:11:30;15.88;;;2.10;;
73571;SDS011;61854;48.510;-2.770;2023-12-20T10:13:59;17.75;;;2.42;;
73571;SDS011;61854;48.510;-2.770;2023-12-20T10:16:28;20.27;;;2.63;;
73571;SDS011;61854;48.510;-2.770;2023-12-20T10:18:54;16.02;;;2.13;;
73571;SDS011;61854;48.510;-2.770;2023-12-20T10:21:20;18.05;;;2.00;;
73571;SDS011;61854;48.510;-2.770;2023-12-20T10:23:47;12.90;;;2.10;;
73571;SDS011;61854;48.510;-2.770;2023-12-20T10:26:48;14.23;;;2.33;;
73571;SDS011;61854;48.510;-2.770;2023-12-20T10:29:06;13.70;;;2.08;;
73571;SDS011;61854;48.510;-2.770;2023-12-20T10:31:32;13.73;;;2.70;;
73571;SDS011;61854;48.510;-2.770;2023-12-20T10:34:00;13.90;;;2.30;;
73571;SDS011;61854;48.510;-2.770;2023-12-20T10:36:29;17.17;;;2.38;;
73571;SDS011;61854;48.510;-2.770;2023-12-20T10:38:58;16.65;;;2.75;;
73571;SDS011;61854;48.510;-2.770;2023-12-20T10:41:26;16.67;;;2.60;;
73571;SDS011;61854;48.510;-2.770;2023-12-20T10:43:57;13.38;;;1.77;;
73571;SDS011;61854;48.510;-2.770;2023-12-20T10:46:27;13.40;;;2.20;;
73571;SDS011;61854;48.510;-2.770;2023-12-20T10:48:54;18.80;;;2.60;;
73571;SDS011;61854;48.510;-2.770;2023-12-20T10:51:21;14.00;;;2.17;;
73571;SDS011;61854;48.510;-2.770;2023-12-20T10:53:48;12.35;;;2.13;;
73571;SDS011;61854;48.510;-2.770;2023-12-20T10:56:18;12.98;;;2.33;;
73571;SDS011;61854;48.510;-2.770;2023-12-20T10:58:45;18.85;;;2.67;;
73571;SDS011;61854;48.510;-2.770;2023-12-20T11:01:15;22.88;;;2.47;;
73571;SDS011;61854;48.510;-2.770;2023-12-20T11:03:44;18.60;;;2.90;;
73571;SDS011;61854;48.510;-2.770;2023-12-20T11:08:58;15.32;;;2.28;;
73571;SDS011;61854;48.510;-2.770;2023-12-20T11:11:56;12.73;;;2.05;;
73571;SDS011;61854;48.510;-2.770;2023-12-20T11:17:10;15.40;;;2.22;;
73571;SDS011;61854;48.510;-2.770;2023-12-20T11:22:25;15.80;;;2.38;;
73571;SDS011;61854;48.510;-2.770;2023-12-20T11:27:31;14.23;;;1.90;;
73571;SDS011;61854;48.510;-2.770;2023-12-20T11:29:58;16.48;;;2.55;;
73571;SDS011;61854;48.510;-2.770;2023-12-20T11:37:28;13.55;;;1.95;;
73571;SDS011;61854;48.510;-2.770;2023-12-20T11:40:00;19.98;;;2.33;;
73571;SDS011;61854;48.510;-2.770;2023-12-20T11:45:10;15.20;;;1.90;;
73571;SDS011;61854;48.510;-2.770;2023-12-20T11:47:36;13.90;;;2.13;;
73571;SDS011;61854;48.510;-2.770;2023-12-20T11:50:02;15.73;;;2.17;;
73571;SDS011;61854;48.510;-2.770;2023-12-20T11:52:29;17.63;;;2.28;;
73571;SDS011;61854;48.510;-2.770;2023-12-20T11:54:55;15.88;;;2.28;;
73571;SDS011;61854;48.510;-2.770;2023-12-20T11:57:22;14.05;;;2.28;;
73571;SDS011;61854;48.510;-2.770;2023-12-20T11:59:47;7.68;;;1.30;;
73571;SDS011;61854;48.510;-2.770;2023-12-20T12:02:13;12.77;;;2.20;;
73571;SDS011;61854;48.510;-2.770;2023-12-20T12:04:43;14.35;;;2.08;;
73571;SDS011;61854;48.510;-2.770;2023-12-20T12:07:08;10.43;;;1.92;;
73571;SDS011;61854;48.510;-2.770;2023-12-20T12:09:34;10.70;;;1.40;;
73571;SDS011;61854;48.510;-2.770;2023-12-20T12:12:00;15.15;;;2.17;;
73571;SDS011;61854;48.510;-2.770;2023-12-20T12:14:26;13.85;;;2.20;;
73571;SDS011;61854;48.510;-2.770;2023-12-20T12:16:52;8.82;;;1.52;;
73571;SDS011;61854;48.510;-2.770;2023-12-20T12:19:22;18.00;;;2.15;;
73571;SDS011;61854;48.510;-2.770;2023-12-20T12:21:48;13.60;;;1.85;;
73571;SDS011;61854;48.510;-2.770;2023-12-20T12:24:14;13.82;;;2.38;;
73571;SDS011;61854;48.510;-2.770;2023-12-20T12:26:40;15.02;;;2.38;;
73571;SDS011;61854;48.510;-2.770;2023-12-20T12:29:09;11.00;;;1.70;;
73571;SDS011;61854;48.510;-2.770;2023-12-20T12:31:34;9.80;;;1.80;;
73571;SDS011;61854;48.510;-2.770;2023-12-20T12:34:00;10.40;;;1.45;;
73571;SDS011;61854;48.510;-2.770;2023-12-20T12:36:27;13.07;;;2.10;;
73571;SDS011;61854;48.510;-2.770;2023-12-20T12:38:56;9.57;;;2.17;;
73571;SDS011;61854;48.510;-2.770;2023-12-20T12:41:23;8.75;;;1.20;;
73571;SDS011;61854;48.510;-2.770;2023-12-20T12:43:48;12.02;;;1.50;;
73571;SDS011;61854;48.510;-2.770;2023-12-20T12:46:14;7.47;;;1.17;;
73571;SDS011;61854;48.510;-2.770;2023-12-20T12:48:39;12.80;;;2.00;;
73571;SDS011;61854;48.510;-2.770;2023-12-20T12:51:05;12.73;;;2.00;;
73571;SDS011;61854;48.510;-2.770;2023-12-20T12:53:32;12.48;;;2.25;;
73571;SDS011;61854;48.510;-2.770;2023-12-20T12:55:57;14.23;;;1.58;;
73571;SDS011;61854;48.510;-2.770;2023-12-20T12:58:23;9.52;;;1.70;;
73571;SDS011;61854;48.510;-2.770;2023-12-20T13:00:51;7.50;;;1.30;;
73571;SDS011;61854;48.510;-2.770;2023-12-20T13:03:16;6.20;;;1.27;;
73571;SDS011;61854;48.510;-2.770;2023-12-20T13:05:42;9.20;;;1.33;;
73571;SDS011;61854;48.510;-2.770;2023-12-20T13:08:07;5.70;;;1.00;;
73571;SDS011;61854;48.510;-2.770;2023-12-20T13:10:34;7.05;;;1.27;;
73571;SDS011;61854;48.510;-2.770;2023-12-20T13:13:00;9.43;;;1.50;;
73571;SDS011;61854;48.510;-2.770;2023-12-20T13:15:25;3.75;;;0.80;;
73571;SDS011;61854;48.510;-2.770;2023-12-20T13:17:51;7.18;;;1.15;;
73571;SDS011;61854;48.510;-2.770;2023-12-20T13:20:17;11.80;;;1.45;;
73571;SDS011;61854;48.510;-2.770;2023-12-20T13:22:42;8.55;;;1.40;;
73571;SDS011;61854;48.510;-2.770;2023-12-20T13:25:08;6.00;;;1.08;;
73571;SDS011;61854;48.510;-2.770;2023-12-20T13:27:33;7.20;;;1.35;;
73571;SDS011;61854;48.510;-2.770;2023-12-20T13:29:59;6.25;;;0.85;;
73571;SDS011;61854;48.510;-2.770;2023-12-20T13:32:25;7.25;;;1.10;;
73571;SDS011;61854;48.510;-2.770;2023-12-20T13:34:50;5.93;;;0.88;;
73571;SDS011;61854;48.510;-2.770;2023-12-20T13:37:16;6.22;;;1.05;;
73571;SDS011;61854;48.510;-2.770;2023-12-20T13:39:42;10.13;;;1.40;;
73571;SDS011;61854;48.510;-2.770;2023-12-20T13:42:07;6.82;;;1.20;;
73571;SDS011;61854;48.510;-2.770;2023-12-20T13:44:33;6.07;;;0.98;;
73571;SDS011;61854;48.510;-2.770;2023-12-20T13:46:59;7.75;;;1.20;;
73571;SDS011;61854;48.510;-2.770;2023-12-20T13:49:24;7.03;;;0.98;;
73571;SDS011;61854;48.510;-2.770;2023-12-20T13:51:50;11.23;;;1.60;;
73571;SDS011;61854;48.510;-2.770;2023-12-20T13:54:16;7.85;;;1.10;;
73571;SDS011;61854;48.510;-2.770;2023-12-20T13:56:45;6.60;;;1.30;;
73571;SDS011;61854;48.510;-2.770;2023-12-20T13:59:11;7.65;;;1.25;;
73571;SDS011;61854;48.510;-2.770;2023-12-20T14:01:37;6.10;;;1.17;;
73571;SDS011;61854;48.510;-2.770;2023-12-20T14:04:03;7.25;;;1.30;;
73571;SDS011;61854;48.510;-2.770;2023-12-20T14:06:29;8.55;;;1.20;;
73571;SDS011;61854;48.510;-2.770;2023-12-20T14:08:55;9.77;;;1.20;;
73571;SDS011;61854;48.510;-2.770;2023-12-20T14:11:20;4.65;;;1.05;;
73571;SDS011;61854;48.510;-2.770;2023-12-20T14:13:46;7.30;;;0.93;;
73571;SDS011;61854;48.510;-2.770;2023-12-20T14:16:12;9.50;;;0.90;;
73571;SDS011;61854;48.510;-2.770;2023-12-20T14:18:38;8.43;;;1.20;;
73571;SDS011;61854;48.510;-2.770;2023-12-20T14:21:05;8.00;;;1.20;;
73571;SDS011;61854;48.510;-2.770;2023-12-20T14:23:31;4.38;;;0.90;;
73571;SDS011;61854;48.510;-2.770;2023-12-20T14:25:58;4.60;;;1.00;;
73571;SDS011;61854;48.510;-2.770;2023-12-20T14:28:24;7.80;;;1.27;;
73571;SDS011;61854;48.510;-2.770;2023-12-20T14:30:50;7.03;;;1.20;;
73571;SDS011;61854;48.510;-2.770;2023-12-20T14:33:16;5.10;;;1.05;;
73571;SDS011;61854;48.510;-2.770;2023-12-20T14:35:42;6.47;;;1.00;;
73571;SDS011;61854;48.510;-2.770;2023-12-20T14:38:09;6.80;;;1.10;;
73571;SDS011;61854;48.510;-2.770;2023-12-20T14:40:35;4.75;;;0.90;;